aviador You're here:

KIXD Decoded Metar

OLATHE/INDUSTRIA in KS, USA
Report Time2018-06-24 21:53:00
UTC Time2018-06-24 22:48:17
Flight Rules vfr VFR
Wind150° at 06 kt
W.Decomp.*RWY 18: 5.0 kt HW 3.4 kt LCW
RWY 22: 1.7 kt HW 5.8 kt LCW
W.Rank150° ranks 5
Current wind is below 150° avg. (8.5)
Visibility9999 m
Phenomena:N/A
Clouds:Few 110 Hf
Expected CloudBase > 1,600 ft AGL from Temp-Dew spread
CeilingNone
Temp26°C (ISA +13)
Dew Point22°C (79% RH)
QNH1012 hPa
Density Alt3,035 ft
Elevation1,122 ft
Report Wrong Elevation
Raw Report
KIXD 242153Z 15006KT 10SM FEW110 26/22 A2988 RMK AO2 SLP107
T02560222=

Extra information for KIXD:More info

Metar Taf Metar & Taf Last 4 Metars F.Rules Stats Wind Profile Meteogram Temp Stats Airport Information Weather charts Add Link Nearby VenuesMetar ALERT Operation Metar Decoded Social comments

AIRNAV info for KIXD